createdAt,value
2024-04-08T00:01:46.900Z,17.9
2024-04-08T00:07:08.083Z,17.9
2024-04-08T00:12:29.124Z,17.8
2024-04-08T00:17:50.242Z,17.8
2024-04-08T00:23:27.380Z,17.8
2024-04-08T00:28:32.726Z,17.8
2024-04-08T00:33:38.523Z,17.8
2024-04-08T00:38:59.977Z,17.8
2024-04-08T00:44:23.782Z,17.8
2024-04-08T00:49:45.666Z,17.8
2024-04-08T00:55:07.629Z,17.8
2024-04-08T01:00:28.219Z,17.8
2024-04-08T01:06:04.373Z,17.8
2024-04-08T01:11:26.409Z,17.8
2024-04-08T01:17:03.579Z,17.8
2024-04-08T01:22:40.372Z,17.8
2024-04-08T01:28:20.261Z,17.8
2024-04-08T01:33:58.635Z,17.8
2024-04-08T01:39:19.823Z,17.7
2024-04-08T01:44:41.559Z,17.7
2024-04-08T01:50:02.599Z,17.7
2024-04-08T01:55:39.232Z,17.7
2024-04-08T02:01:01.082Z,17.7
2024-04-08T02:06:37.512Z,17.7
2024-04-08T02:12:14.082Z,17.7
2024-04-08T02:17:35.390Z,17.7
2024-04-08T02:23:12.152Z,17.7
2024-04-08T02:28:49.317Z,17.6
2024-04-08T02:34:26.539Z,17.6
2024-04-08T02:40:03.261Z,17.6
2024-04-08T02:45:40.512Z,17.6
2024-04-08T02:51:17.765Z,17.6
2024-04-08T02:56:40.525Z,17.6
2024-04-08T03:02:01.545Z,17.6
2024-04-08T03:07:26.596Z,17.6
2024-04-08T03:12:47.882Z,17.6
2024-04-08T03:18:11.728Z,17.6
2024-04-08T03:23:33.026Z,17.6
2024-04-08T03:29:09.844Z,17.6
2024-04-08T03:34:50.456Z,17.6
2024-04-08T03:40:28.010Z,17.6
2024-04-08T03:46:06.482Z,17.5
2024-04-08T03:51:45.366Z,17.5
2024-04-08T03:57:22.076Z,17.5
2024-04-08T04:03:00.012Z,17.5
2024-04-08T04:08:36.322Z,17.5
2024-04-08T04:14:12.848Z,17.5
2024-04-08T04:19:48.931Z,17.4
2024-04-08T04:25:10.184Z,17.4
2024-04-08T04:30:45.956Z,17.4
2024-04-08T04:36:25.447Z,17.4
2024-04-08T04:42:01.661Z,17.4
2024-04-08T04:47:39.041Z,17.4
2024-04-08T04:53:15.749Z,17.4
2024-04-08T04:58:38.178Z,17.4
2024-04-08T05:04:15.056Z,17.4
2024-04-08T05:09:51.335Z,17.4
2024-04-08T05:15:27.809Z,17.4
2024-04-08T05:21:06.651Z,17.4
2024-04-08T05:26:43.147Z,17.4
2024-04-08T05:32:22.832Z,17.4
2024-04-08T05:37:59.955Z,17.4
2024-04-08T05:43:21.379Z,17.4
2024-04-08T05:48:58.998Z,17.4
2024-04-08T05:54:36.247Z,17.4
2024-04-08T06:00:13.151Z,17.3
2024-04-08T06:05:49.781Z,17.3
2024-04-08T06:11:26.668Z,17.4
2024-04-08T06:17:03.111Z,17.3
2024-04-08T06:22:39.862Z,17.3
2024-04-08T06:28:20.074Z,17.3
2024-04-08T06:33:57.272Z,17.3
2024-04-08T06:39:33.972Z,17.3
2024-04-08T06:45:11.737Z,17.3
2024-04-08T06:50:48.698Z,17.3
2024-04-08T06:56:29.098Z,17.3
2024-04-08T07:02:08.179Z,17.3
2024-04-08T07:07:45.006Z,17.3
2024-04-08T07:13:21.927Z,17.4
2024-04-08T07:19:03.286Z,17.3
2024-04-08T07:24:42.788Z,17.3
2024-04-08T07:30:04.494Z,17.3
2024-04-08T07:35:44.543Z,17.3
2024-04-08T07:41:36.151Z,17.4
2024-04-08T07:47:13.450Z,17.3
2024-04-08T07:52:50.259Z,17.4
2024-04-08T07:58:28.432Z,17.4
2024-04-08T08:04:07.928Z,17.3
2024-04-08T08:09:45.348Z,17.3
2024-04-08T08:15:24.844Z,17.4
2024-04-08T08:21:06.132Z,17.4
2024-04-08T08:26:46.590Z,17.3
2024-04-08T08:32:08.298Z,17.4
2024-04-08T08:37:45.653Z,17.4
2024-04-08T08:43:23.036Z,17.4
2024-04-08T08:48:44.858Z,17.4
2024-04-08T08:54:21.712Z,17.4
2024-04-08T09:00:03.333Z,17.4
2024-04-08T09:05:45.774Z,17.4
2024-04-08T09:11:22.874Z,17.4
2024-04-08T09:17:00.383Z,17.4
2024-04-08T09:22:06.738Z,17.4
2024-04-08T09:27:48.056Z,17.4
2024-04-08T09:33:25.563Z,17.4
2024-04-08T09:38:47.516Z,17.4
2024-04-08T09:44:24.027Z,17.4
2024-04-08T09:50:05.827Z,17.4
2024-04-08T09:55:26.847Z,17.4
2024-04-08T10:00:57.838Z,17.4
2024-04-08T10:06:19.050Z,17.4
2024-04-08T10:11:27.791Z,17.4
2024-04-08T10:16:52.614Z,17.4
2024-04-08T10:22:02.740Z,17.4
2024-04-08T10:27:29.411Z,17.4
2024-04-08T10:32:53.280Z,17.4
2024-04-08T10:38:33.652Z,17.5
2024-04-08T10:44:12.110Z,17.4
2024-04-08T10:49:49.383Z,17.5
2024-04-08T10:55:27.730Z,17.5
2024-04-08T11:01:05.545Z,17.5
2024-04-08T11:06:44.381Z,17.5
2024-04-08T11:12:22.394Z,17.5
2024-04-08T11:17:44.150Z,17.5
2024-04-08T11:23:24.636Z,17.6
2024-04-08T11:29:00.620Z,17.5
2024-04-08T11:34:40.186Z,17.6
2024-04-08T11:40:35.601Z,17.6
2024-04-08T11:46:20.776Z,17.6
2024-04-08T11:51:45.719Z,17.6
2024-04-08T11:57:39.458Z,17.6
2024-04-08T12:03:17.478Z,17.6
2024-04-08T12:08:38.381Z,17.6
2024-04-08T12:14:00.618Z,17.6
2024-04-08T12:19:06.834Z,17.6
2024-04-08T12:24:46.075Z,17.6
2024-04-08T12:30:22.794Z,17.6
2024-04-08T12:35:47.333Z,17.6
2024-04-08T12:41:09.356Z,17.6
2024-04-08T12:46:53.529Z,17.6
2024-04-08T12:52:24.254Z,17.7
2024-04-08T12:57:46.275Z,17.7
2024-04-08T13:03:09.724Z,17.7
2024-04-08T13:08:35.137Z,17.7
2024-04-08T13:13:26.057Z,17.7
2024-04-08T13:18:52.258Z,17.7
2024-04-08T13:24:30.906Z,17.8
2024-04-08T13:30:14.113Z,17.8
2024-04-08T13:35:55.913Z,17.7
2024-04-08T13:41:36.785Z,17.8
2024-04-08T13:47:13.522Z,17.8
2024-04-08T13:52:51.737Z,17.8
2024-04-08T13:58:31.842Z,17.8
2024-04-08T14:03:55.030Z,17.8
2024-04-08T14:09:33.876Z,17.8
2024-04-08T14:15:10.821Z,17.8
2024-04-08T14:20:50.866Z,17.8
2024-04-08T14:26:31.933Z,17.8
2024-04-08T14:32:07.125Z,17.8
2024-04-08T14:38:20.065Z,17.9
2024-04-08T14:45:21.009Z,17.9
2024-04-08T14:50:59.368Z,17.9
2024-04-08T14:57:09.035Z,17.9
2024-04-08T15:02:54.983Z,17.9
2024-04-08T15:08:40.758Z,17.9
2024-04-08T15:14:17.975Z,17.9
2024-04-08T15:19:56.273Z,18
2024-04-08T15:25:32.014Z,18
2024-04-08T15:31:11.811Z,18
2024-04-08T15:36:37.656Z,18
2024-04-08T15:42:13.376Z,18
2024-04-08T15:47:50.910Z,18.1
2024-04-08T15:53:13.461Z,18.1
2024-04-08T15:58:50.556Z,18.1
2024-04-08T16:04:29.246Z,18.1
2024-04-08T16:10:09.154Z,18.1
2024-04-08T16:15:45.625Z,18.1
2024-04-08T16:21:23.994Z,18.1
2024-04-08T16:27:33.252Z,18.1
2024-04-08T16:33:14.847Z,18.1
2024-04-08T16:38:51.996Z,18.1
2024-04-08T16:44:29.728Z,18.1
2024-04-08T16:50:07.029Z,18.1
2024-04-08T16:55:43.795Z,18.1
2024-04-08T17:01:07.484Z,18.1
2024-04-08T17:06:14.836Z,18.1
2024-04-08T17:11:37.774Z,18.2
2024-04-08T17:17:16.961Z,18.2
2024-04-08T17:22:38.915Z,18.2
2024-04-08T17:28:15.688Z,18.2
2024-04-08T17:33:41.295Z,18.2
2024-04-08T17:39:19.665Z,18.2
2024-04-08T17:44:34.038Z,18.2
2024-04-08T17:50:12.843Z,18.2
2024-04-08T17:55:35.228Z,18.2
2024-04-08T18:00:58.855Z,18.2
2024-04-08T18:06:23.424Z,18.2
2024-04-08T18:12:13.147Z,18.2
2024-04-08T18:17:41.372Z,18.2
2024-04-08T18:23:20.019Z,18.2
2024-04-08T18:28:56.441Z,18.2
2024-04-08T18:34:03.833Z,18.2
2024-04-08T18:39:28.606Z,18.2
2024-04-08T18:45:08.180Z,18.2
2024-04-08T18:50:31.362Z,18.2
2024-04-08T18:56:10.635Z,18.1
2024-04-08T19:01:44.388Z,18.2
2024-04-08T19:07:23.620Z,18.2
2024-04-08T19:12:40.335Z,18.2
2024-04-08T19:18:18.820Z,18.2
2024-04-08T19:24:00.310Z,18.1
2024-04-08T19:29:42.476Z,18.1
2024-04-08T19:35:19.833Z,18.1
2024-04-08T19:40:56.594Z,18.1
2024-04-08T19:47:02.861Z,18.1
2024-04-08T19:52:50.423Z,18.1
2024-04-08T19:58:29.587Z,18.1
2024-04-08T20:04:08.502Z,18.1
2024-04-08T20:09:45.372Z,18.1
2024-04-08T20:15:23.323Z,18.1
2024-04-08T20:21:01.551Z,18.1
2024-04-08T20:26:24.050Z,18.1
2024-04-08T20:32:02.855Z,18.1
2024-04-08T20:37:27.473Z,18.1
2024-04-08T20:43:04.712Z,18.1
2024-04-08T20:48:41.872Z,18.1
2024-04-08T20:54:13.305Z,18.1
2024-04-08T20:59:21.842Z,18.1
2024-04-08T21:04:46.282Z,18.1
2024-04-08T21:10:24.162Z,18.1
2024-04-08T21:15:30.447Z,18.1
2024-04-08T21:20:54.136Z,18.1
2024-04-08T21:25:44.885Z,18.1
2024-04-08T21:30:50.701Z,18.1
2024-04-08T21:36:13.612Z,18.1
2024-04-08T21:41:37.872Z,18.1
2024-04-08T21:46:59.173Z,18.1
2024-04-08T21:52:22.240Z,18
2024-04-08T21:57:44.053Z,18
2024-04-08T22:03:05.999Z,18
2024-04-08T22:08:28.686Z,18
2024-04-08T22:13:50.926Z,18
2024-04-08T22:19:17.111Z,18
2024-04-08T22:24:40.301Z,18
2024-04-08T22:30:01.963Z,17.9
2024-04-08T22:35:09.931Z,18
2024-04-08T22:40:34.470Z,17.9
2024-04-08T22:46:17.710Z,17.9
2024-04-08T22:51:40.521Z,17.9
2024-04-08T22:57:18.066Z,17.9
2024-04-08T23:02:26.505Z,17.9
2024-04-08T23:07:52.476Z,17.9
2024-04-08T23:13:15.877Z,17.9
2024-04-08T23:18:42.343Z,17.9
2024-04-08T23:24:06.058Z,17.9
2024-04-08T23:29:43.361Z,17.9
2024-04-08T23:35:07.339Z,17.9
2024-04-08T23:40:13.882Z,17.9
2024-04-08T23:45:20.423Z,17.8
2024-04-08T23:50:42.692Z,17.8
2024-04-08T23:56:03.432Z,17.8
